createdAt,value
2018-08-25T00:00:58.391Z,67.61
2018-08-25T00:03:25.331Z,67.45
2018-08-25T00:05:53.947Z,67.78
2018-08-25T00:08:20.926Z,66.77
2018-08-25T00:10:48.597Z,66.85
2018-08-25T00:13:15.532Z,66.48
2018-08-25T00:15:44.547Z,66.14
2018-08-25T00:18:11.496Z,67.51
2018-08-25T00:20:39.084Z,67.13
2018-08-25T00:23:06.216Z,68.72
2018-08-25T00:25:36.187Z,68.46
2018-08-25T00:28:03.139Z,67.45
2018-08-25T00:30:35.863Z,68.10
2018-08-25T00:33:02.776Z,67.97
2018-08-25T00:35:29.762Z,68.61
2018-08-25T00:37:56.688Z,67.22
2018-08-25T00:40:24.747Z,68.22
2018-08-25T00:42:51.760Z,68.29
2018-08-25T00:45:18.708Z,67.58
2018-08-25T00:47:46.543Z,66.04
2018-08-25T00:50:13.419Z,66.98
2018-08-25T00:52:40.475Z,67.23
2018-08-25T00:55:07.398Z,66.76
2018-08-25T00:57:34.395Z,65.54
2018-08-25T01:00:01.968Z,67.28
2018-08-25T01:02:29.076Z,68.20
2018-08-25T01:04:56.632Z,70.63
2018-08-25T01:07:23.500Z,73.24
2018-08-25T01:09:50.427Z,74.70
2018-08-25T01:12:17.386Z,73.64
2018-08-25T01:14:44.352Z,74.40
2018-08-25T01:17:11.301Z,73.85
2018-08-25T01:19:38.261Z,74.47
2018-08-25T01:22:05.202Z,73.66
2018-08-25T01:24:32.175Z,72.94
2018-08-25T01:26:59.949Z,73.02
2018-08-25T01:29:27.559Z,71.16
2018-08-25T01:31:54.482Z,71.07
2018-08-25T01:34:21.420Z,70.89
2018-08-25T01:36:48.408Z,69.63
2018-08-25T01:39:16.353Z,68.54
2018-08-25T01:41:43.371Z,68.65
2018-08-25T01:44:10.396Z,69.20
2018-08-25T01:46:37.339Z,67.79
2018-08-25T01:49:04.283Z,68.52
2018-08-25T01:51:31.308Z,69.29
2018-08-25T01:53:58.434Z,68.38
2018-08-25T01:56:25.403Z,67.25
2018-08-25T01:58:52.286Z,68.57
2018-08-25T02:01:22.283Z,68.13
2018-08-25T02:03:49.220Z,68.24
2018-08-25T02:06:16.208Z,67.85
2018-08-25T02:08:43.204Z,68.09
2018-08-25T02:11:11.043Z,68.15
2018-08-25T02:13:37.966Z,68.43
2018-08-25T02:16:05.416Z,69.92
2018-08-25T02:18:32.391Z,68.65
2018-08-25T02:21:00.036Z,69.26
2018-08-25T02:23:27.015Z,68.94
2018-08-25T02:25:53.971Z,69.39
2018-08-25T02:28:21.050Z,69.57
2018-08-25T02:30:47.883Z,69.44
2018-08-25T02:33:14.901Z,68.60
2018-08-25T02:35:41.802Z,69.41
2018-08-25T02:38:08.759Z,69.39
2018-08-25T02:40:35.719Z,68.89
2018-08-25T02:43:02.693Z,68.82
2018-08-25T02:45:29.664Z,69.71
2018-08-25T02:47:56.620Z,69.52
2018-08-25T02:50:23.845Z,70.08
2018-08-25T02:52:50.878Z,70.17
2018-08-25T02:55:17.845Z,69.75
2018-08-25T02:57:45.551Z,70.34
2018-08-25T03:00:12.548Z,70.96
2018-08-25T03:02:39.471Z,69.96
2018-08-25T03:05:06.420Z,70.11
2018-08-25T03:07:33.385Z,69.43
2018-08-25T03:10:00.377Z,69.92
2018-08-25T03:12:27.671Z,70.65
2018-08-25T03:14:55.607Z,70.58
2018-08-25T03:17:22.584Z,70.55
2018-08-25T03:19:49.476Z,69.63
2018-08-25T03:22:16.467Z,67.89
2018-08-25T03:24:46.123Z,69.79
2018-08-25T03:27:14.088Z,69.41
2018-08-25T03:29:41.000Z,68.83
2018-08-25T03:32:07.898Z,68.54
2018-08-25T03:34:34.832Z,68.41
2018-08-25T03:37:01.802Z,68.64
2018-08-25T03:39:28.771Z,69.64
2018-08-25T03:41:55.723Z,69.36
2018-08-25T03:44:23.596Z,69.74
2018-08-25T03:46:50.567Z,69.25
2018-08-25T03:49:17.499Z,68.97
2018-08-25T03:51:45.053Z,69.77
2018-08-25T03:54:12.023Z,69.44
2018-08-25T03:56:41.963Z,69.89
2018-08-25T03:59:08.975Z,69.03
2018-08-25T04:01:37.101Z,69.38
2018-08-25T04:04:03.930Z,70.12
2018-08-25T04:06:30.923Z,69.16
2018-08-25T04:08:57.864Z,69.21
2018-08-25T04:11:24.843Z,70.10
2018-08-25T04:13:51.774Z,69.30
2018-08-25T04:16:18.735Z,69.22
2018-08-25T04:18:45.707Z,69.13
2018-08-25T04:21:12.648Z,69.60
2018-08-25T04:23:39.591Z,70.44
2018-08-25T04:26:07.111Z,70.21
2018-08-25T04:28:34.578Z,71.52
2018-08-25T04:31:01.552Z,71.41
2018-08-25T04:33:29.168Z,71.22
2018-08-25T04:35:56.056Z,71.76
2018-08-25T04:38:23.005Z,70.98
2018-08-25T04:40:49.947Z,71.38
2018-08-25T04:43:16.899Z,71.26
2018-08-25T04:45:43.839Z,72.45
2018-08-25T04:48:11.859Z,70.79
2018-08-25T04:50:38.808Z,71.61
2018-08-25T04:53:05.760Z,71.70
2018-08-25T04:55:32.682Z,71.72
2018-08-25T04:57:59.698Z,70.74
2018-08-25T05:00:26.643Z,70.74
2018-08-25T05:02:53.599Z,71.44
2018-08-25T05:05:20.583Z,70.62
2018-08-25T05:07:47.524Z,70.97
2018-08-25T05:10:14.406Z,71.45
2018-08-25T05:12:41.344Z,70.67
2018-08-25T05:15:08.279Z,70.70
2018-08-25T05:17:35.276Z,70.90
2018-08-25T05:20:02.110Z,70.94
2018-08-25T05:22:29.023Z,71.18
2018-08-25T05:24:56.004Z,70.69
2018-08-25T05:27:22.959Z,69.65
2018-08-25T05:29:49.899Z,70.61
2018-08-25T05:32:18.617Z,69.91
2018-08-25T05:34:47.119Z,69.76
2018-08-25T05:37:14.071Z,70.48
2018-08-25T05:39:40.997Z,70.34
2018-08-25T05:42:07.979Z,70.37
2018-08-25T05:44:34.946Z,71.54
2018-08-25T05:47:02.087Z,70.79
2018-08-25T05:49:30.045Z,70.45
2018-08-25T05:51:57.057Z,71.84
2018-08-25T05:54:24.004Z,71.23
2018-08-25T05:56:51.027Z,71.27
2018-08-25T05:59:18.037Z,71.84
2018-08-25T06:01:44.986Z,72.04
2018-08-25T06:04:12.958Z,71.64
2018-08-25T06:06:42.696Z,71.54
2018-08-25T06:09:11.463Z,72.04
2018-08-25T06:11:38.483Z,72.43
2018-08-25T06:14:05.420Z,72.05
2018-08-25T06:16:32.351Z,72.58
2018-08-25T06:18:59.323Z,72.60
2018-08-25T06:21:26.241Z,72.19
2018-08-25T06:23:53.319Z,71.52
2018-08-25T06:26:20.280Z,71.89
2018-08-25T06:28:47.246Z,71.17
2018-08-25T06:31:14.168Z,72.10
2018-08-25T06:33:41.126Z,71.25
2018-08-25T06:36:08.278Z,70.90
2018-08-25T06:38:35.127Z,71.02
2018-08-25T06:41:02.012Z,72.50
2018-08-25T06:43:29.041Z,71.56
2018-08-25T06:46:14.284Z,72.42
2018-08-25T06:48:41.211Z,72.10
2018-08-25T06:51:08.675Z,72.12
2018-08-25T06:53:37.734Z,72.85
2018-08-25T06:56:04.807Z,73.89
2018-08-25T06:58:31.748Z,73.62
2018-08-25T07:00:58.680Z,73.81
2018-08-25T07:03:25.663Z,73.46
2018-08-25T07:05:56.439Z,73.27
2018-08-25T07:08:23.363Z,72.80
2018-08-25T07:10:51.323Z,73.52
2018-08-25T07:13:19.188Z,73.57
2018-08-25T07:15:46.173Z,73.72
2018-08-25T07:18:13.134Z,74.43
2018-08-25T07:20:40.182Z,74.93
2018-08-25T07:23:08.694Z,74.18
2018-08-25T07:25:37.192Z,73.74
2018-08-25T07:28:04.239Z,74.17
2018-08-25T07:30:31.228Z,74.21
2018-08-25T07:32:58.258Z,73.85
2018-08-25T07:35:25.180Z,73.12
2018-08-25T07:37:52.167Z,74.33
2018-08-25T07:40:19.120Z,74.01
2018-08-25T07:42:46.071Z,73.41
2018-08-25T07:45:13.081Z,73.76
2018-08-25T07:47:39.951Z,73.34
2018-08-25T07:50:07.556Z,74.34
2018-08-25T07:52:34.763Z,75.25
2018-08-25T07:55:01.688Z,75.05
2018-08-25T07:57:28.623Z,73.63
2018-08-25T07:59:55.593Z,73.96
2018-08-25T08:02:22.555Z,73.87
2018-08-25T08:04:49.535Z,73.61
2018-08-25T08:07:16.358Z,74.78
2018-08-25T08:09:43.337Z,75.10
2018-08-25T08:12:10.370Z,75.56
2018-08-25T08:14:39.291Z,76.61
2018-08-25T08:17:08.231Z,77.51
2018-08-25T08:19:35.140Z,77.62
2018-08-25T08:22:03.840Z,76.63
2018-08-25T08:24:30.771Z,78.21
2018-08-25T08:26:58.276Z,77.46
2018-08-25T08:29:26.271Z,78.40
2018-08-25T08:31:53.216Z,79.13
2018-08-25T08:34:21.255Z,79.16
2018-08-25T08:36:48.296Z,79.91
2018-08-25T08:39:15.188Z,79.32
2018-08-25T08:41:42.194Z,79.63
2018-08-25T08:44:09.167Z,79.70
2018-08-25T08:46:36.806Z,80.46
2018-08-25T08:49:05.392Z,81.02
2018-08-25T08:51:32.944Z,81.31
2018-08-25T08:54:00.211Z,80.64
2018-08-25T08:56:27.195Z,81.54
2018-08-25T08:58:54.212Z,81.51
2018-08-25T09:01:21.256Z,81.42
2018-08-25T09:03:48.286Z,81.79
2018-08-25T09:06:15.223Z,81.75
2018-08-25T09:08:42.153Z,82.03
2018-08-25T09:11:09.755Z,82.29
2018-08-25T09:13:36.719Z,80.88
2018-08-25T09:16:04.343Z,80.40
2018-08-25T09:18:31.343Z,79.97
2018-08-25T09:20:58.323Z,78.74
2018-08-25T09:23:25.230Z,78.91
2018-08-25T09:25:52.223Z,78.79
2018-08-25T09:28:19.164Z,79.48
2018-08-25T09:30:46.146Z,79.67
2018-08-25T09:33:13.124Z,79.16
2018-08-25T09:35:40.082Z,79.39
2018-08-25T09:38:07.092Z,79.81
2018-08-25T09:40:34.071Z,78.97
2018-08-25T09:43:01.044Z,79.64
2018-08-25T09:45:27.959Z,80.14
2018-08-25T09:47:54.947Z,78.30
2018-08-25T09:50:21.904Z,77.82
2018-08-25T09:52:48.856Z,78.15
2018-08-25T09:55:15.826Z,78.73
2018-08-25T09:57:42.771Z,79.07
2018-08-25T10:00:10.505Z,78.29
2018-08-25T10:02:37.515Z,77.69
2018-08-25T10:05:05.660Z,77.28
2018-08-25T10:07:32.628Z,77.74
2018-08-25T10:09:59.584Z,78.02
2018-08-25T10:12:26.569Z,78.09
2018-08-25T10:14:55.276Z,77.34
2018-08-25T10:17:22.252Z,76.54
2018-08-25T10:19:49.189Z,76.37
2018-08-25T10:22:17.151Z,76.81
2018-08-25T10:24:45.747Z,75.53
2018-08-25T10:27:12.826Z,74.85
2018-08-25T10:29:39.792Z,74.73
2018-08-25T10:32:06.759Z,74.68
2018-08-25T10:34:33.678Z,74.55
2018-08-25T10:37:00.634Z,73.88
2018-08-25T10:39:27.600Z,74.07
2018-08-25T10:41:54.633Z,73.95
2018-08-25T10:44:21.538Z,71.75
2018-08-25T10:46:48.475Z,70.27
2018-08-25T10:49:15.443Z,71.08
2018-08-25T10:51:42.422Z,70.75
2018-08-25T10:54:09.403Z,71.96
2018-08-25T10:56:36.328Z,74.17
2018-08-25T10:59:03.256Z,72.22
2018-08-25T11:01:31.264Z,70.85
2018-08-25T11:03:58.792Z,70.68
2018-08-25T11:06:25.827Z,70.30
2018-08-25T11:08:53.406Z,71.20
2018-08-25T11:11:20.863Z,72.32
2018-08-25T11:13:47.735Z,72.25
2018-08-25T11:16:14.819Z,71.47
2018-08-25T11:18:42.731Z,72.17
2018-08-25T11:21:09.731Z,73.35
2018-08-25T11:23:36.780Z,76.34
2018-08-25T11:26:04.269Z,80.56
2018-08-25T11:28:31.363Z,81.33
2018-08-25T11:30:58.315Z,83.06
2018-08-25T11:33:26.950Z,82.74
2018-08-25T11:35:53.887Z,84.21
2018-08-25T11:38:20.847Z,84.41
2018-08-25T11:40:48.756Z,84.05
2018-08-25T11:43:16.702Z,83.10
2018-08-25T11:45:44.363Z,83.93
2018-08-25T11:48:11.342Z,82.93
2018-08-25T11:50:38.319Z,82.94
2018-08-25T11:53:05.236Z,83.51
2018-08-25T11:55:32.187Z,84.09
2018-08-25T11:57:59.168Z,83.53
2018-08-25T12:00:26.124Z,84.54
2018-08-25T12:02:53.067Z,82.15
2018-08-25T12:05:20.019Z,81.45
2018-08-25T12:07:47.003Z,80.36
2018-08-25T12:10:14.911Z,79.15
2018-08-25T12:12:42.854Z,79.10
2018-08-25T12:15:09.843Z,77.75
2018-08-25T12:17:37.367Z,78.01
2018-08-25T12:20:04.768Z,76.69
2018-08-25T12:22:31.699Z,77.82
2018-08-25T12:24:58.643Z,74.73
2018-08-25T12:27:25.599Z,72.73
2018-08-25T12:29:52.551Z,72.50
2018-08-25T12:32:19.543Z,70.42
2018-08-25T12:34:46.461Z,70.42
2018-08-25T12:37:13.436Z,70.27
2018-08-25T12:39:40.400Z,67.92
2018-08-25T12:42:07.360Z,67.50
2018-08-25T12:44:34.306Z,67.21
2018-08-25T12:47:01.861Z,66.16
2018-08-25T12:49:29.884Z,64.91
2018-08-25T12:51:56.836Z,64.09
2018-08-25T12:54:23.793Z,62.97
2018-08-25T12:56:50.736Z,63.10
2018-08-25T12:59:17.778Z,59.46
2018-08-25T13:01:45.404Z,59.67
2018-08-25T13:04:12.347Z,62.15
2018-08-25T13:06:39.348Z,61.44
2018-08-25T13:09:07.419Z,60.69
2018-08-25T13:11:35.920Z,63.30
2018-08-25T13:14:02.951Z,62.07
2018-08-25T13:16:29.895Z,63.11
2018-08-25T13:18:56.837Z,64.86
2018-08-25T13:21:23.811Z,63.75
2018-08-25T13:23:52.407Z,61.72
2018-08-25T13:26:19.326Z,61.36
2018-08-25T13:28:49.584Z,60.52
2018-08-25T13:31:17.516Z,56.86
2018-08-25T13:33:44.443Z,58.00
2018-08-25T13:36:11.499Z,58.54
2018-08-25T13:38:38.464Z,56.46
2018-08-25T13:41:05.396Z,56.79
2018-08-25T13:43:32.428Z,55.58
2018-08-25T13:45:59.327Z,53.43
2018-08-25T13:48:26.283Z,48.82
2018-08-25T13:50:53.332Z,47.10
2018-08-25T13:53:20.348Z,49.67
2018-08-25T13:55:47.955Z,52.20
2018-08-25T13:58:14.926Z,49.46
2018-08-25T14:00:41.909Z,47.35
2018-08-25T14:03:08.855Z,47.15
2018-08-25T14:05:35.830Z,46.53
2018-08-25T14:08:02.801Z,46.17
2018-08-25T14:10:30.444Z,46.34
2018-08-25T14:12:57.994Z,48.63
2018-08-25T14:15:24.951Z,46.45
2018-08-25T14:17:52.488Z,46.38
2018-08-25T14:20:19.513Z,46.29
2018-08-25T14:22:46.429Z,45.87
2018-08-25T14:25:13.411Z,45.83
2018-08-25T14:27:40.432Z,45.53
2018-08-25T14:30:08.423Z,45.32
2018-08-25T14:32:35.395Z,45.15
2018-08-25T14:35:02.948Z,43.36
2018-08-25T14:37:29.933Z,44.19
2018-08-25T14:40:00.482Z,44.02
2018-08-25T14:42:27.396Z,42.68
2018-08-25T14:44:54.299Z,41.94
2018-08-25T14:47:21.254Z,44.33
2018-08-25T14:49:48.262Z,45.42
2018-08-25T14:52:16.373Z,45.96
2018-08-25T14:54:46.296Z,46.25
2018-08-25T14:57:13.264Z,45.46
2018-08-25T14:59:40.263Z,44.52
2018-08-25T15:02:07.167Z,43.40
2018-08-25T15:04:34.159Z,43.54
2018-08-25T15:07:01.059Z,40.88
2018-08-25T15:09:28.964Z,43.30
2018-08-25T15:11:55.954Z,41.99
2018-08-25T15:14:22.894Z,41.02
2018-08-25T15:16:49.859Z,42.22
2018-08-25T15:19:16.815Z,40.12
2018-08-25T15:21:43.767Z,41.57
2018-08-25T15:24:13.394Z,42.30
2018-08-25T15:26:40.300Z,42.40
2018-08-25T15:29:07.254Z,41.94
2018-08-25T15:31:34.248Z,41.93
2018-08-25T15:34:02.976Z,42.76
2018-08-25T15:36:29.925Z,42.45
2018-08-25T15:38:58.512Z,41.58
2018-08-25T15:41:25.504Z,41.02
2018-08-25T15:43:52.393Z,40.87
2018-08-25T15:46:19.347Z,42.76
2018-08-25T15:48:47.288Z,43.08
2018-08-25T15:51:14.175Z,40.50
2018-08-25T15:53:41.159Z,41.79
2018-08-25T15:56:08.120Z,41.75
2018-08-25T15:58:35.076Z,41.12
2018-08-25T16:01:02.006Z,42.26
2018-08-25T16:03:29.037Z,41.98
2018-08-25T16:05:56.040Z,43.01
2018-08-25T16:08:23.026Z,43.00
2018-08-25T16:10:50.471Z,43.91
2018-08-25T16:13:17.452Z,43.92
2018-08-25T16:15:44.395Z,43.26
2018-08-25T16:18:11.372Z,42.13
2018-08-25T16:20:38.316Z,42.45
2018-08-25T16:23:05.228Z,43.22
2018-08-25T16:25:33.254Z,41.59
2018-08-25T16:28:00.207Z,42.62
2018-08-25T16:30:28.191Z,42.89
2018-08-25T16:32:55.168Z,42.65
2018-08-25T16:35:22.071Z,41.69
2018-08-25T16:37:49.038Z,41.02
2018-08-25T16:40:16.037Z,41.42
2018-08-25T16:42:43.057Z,43.73
2018-08-25T16:45:10.010Z,43.41
2018-08-25T16:47:36.995Z,43.69
2018-08-25T16:50:03.935Z,44.48
2018-08-25T16:52:30.800Z,43.53
2018-08-25T16:54:57.734Z,45.67
2018-08-25T16:57:24.716Z,44.11
2018-08-25T16:59:51.671Z,42.77
2018-08-25T17:02:18.640Z,42.38
2018-08-25T17:04:45.572Z,41.75
2018-08-25T17:07:12.511Z,41.48
2018-08-25T17:09:39.494Z,41.66
2018-08-25T17:12:06.428Z,42.84
2018-08-25T17:14:34.461Z,42.31
2018-08-25T17:17:01.440Z,42.89
2018-08-25T17:19:28.383Z,42.58
2018-08-25T17:21:57.096Z,44.02
2018-08-25T17:24:25.519Z,43.88
2018-08-25T17:26:52.514Z,43.50
2018-08-25T17:29:20.079Z,45.15
2018-08-25T17:31:47.045Z,44.44
2018-08-25T17:34:14.068Z,44.68
2018-08-25T17:36:41.060Z,46.02
2018-08-25T17:39:10.508Z,46.76
2018-08-25T17:41:38.200Z,46.37
2018-08-25T17:44:07.154Z,47.19
2018-08-25T17:46:35.008Z,47.31
2018-08-25T17:49:05.295Z,47.43
2018-08-25T17:51:33.052Z,46.23
2018-08-25T17:53:59.999Z,47.26
2018-08-25T17:56:26.920Z,47.05
2018-08-25T17:58:54.532Z,48.26
2018-08-25T18:01:22.531Z,49.11
2018-08-25T18:03:53.584Z,48.63
2018-08-25T18:06:21.440Z,50.13
2018-08-25T18:08:48.383Z,50.61
2018-08-25T18:11:15.535Z,50.39
2018-08-25T18:13:42.333Z,50.74
2018-08-25T18:16:09.495Z,50.39
2018-08-25T18:18:37.072Z,52.00
2018-08-25T18:21:04.015Z,54.02
2018-08-25T18:23:31.045Z,56.31
2018-08-25T18:25:58.080Z,55.52
2018-08-25T18:28:25.375Z,55.10
2018-08-25T18:30:53.064Z,55.83
2018-08-25T18:33:21.047Z,54.98
2018-08-25T18:35:49.055Z,55.94
2018-08-25T18:38:17.020Z,56.36
2018-08-25T18:40:43.989Z,57.19
2018-08-25T18:43:10.931Z,57.58
2018-08-25T18:45:39.928Z,57.41
2018-08-25T18:48:06.938Z,57.39
2018-08-25T18:50:33.848Z,57.00
2018-08-25T18:53:00.827Z,57.02
2018-08-25T18:55:28.607Z,56.88
2018-08-25T18:57:55.556Z,57.80
2018-08-25T19:00:22.496Z,56.62
2018-08-25T19:02:49.454Z,58.03
2018-08-25T19:05:16.435Z,57.15
2018-08-25T19:07:43.395Z,57.06
2018-08-25T19:10:10.348Z,58.44
2018-08-25T19:12:37.302Z,58.97
2018-08-25T19:15:04.247Z,59.60
2018-08-25T19:17:32.215Z,59.69
2018-08-25T19:19:59.179Z,59.25
2018-08-25T19:22:26.156Z,59.99
2018-08-25T19:24:54.116Z,59.81
2018-08-25T19:27:21.083Z,61.58
2018-08-25T19:29:48.125Z,61.16
2018-08-25T19:32:15.004Z,62.36
2018-08-25T19:34:41.942Z,63.71
2018-08-25T19:37:08.863Z,62.91
2018-08-25T19:39:35.829Z,63.72
2018-08-25T19:42:02.831Z,62.38
2018-08-25T19:44:30.539Z,61.97
2018-08-25T19:46:57.492Z,62.68
2018-08-25T19:49:24.371Z,63.52
2018-08-25T19:51:51.376Z,64.39
2018-08-25T19:54:18.331Z,63.66
2018-08-25T19:56:45.284Z,64.51
2018-08-25T19:59:12.218Z,65.45
2018-08-25T20:01:40.242Z,66.70
2018-08-25T20:04:07.176Z,68.28
2018-08-25T20:06:34.152Z,68.47
2018-08-25T20:09:01.088Z,68.79
2018-08-25T20:11:28.044Z,69.19
2018-08-25T20:13:55.016Z,69.44
2018-08-25T20:16:21.927Z,68.20
2018-08-25T20:18:48.902Z,69.11
2018-08-25T20:21:15.874Z,70.61
2018-08-25T20:23:42.842Z,69.90
2018-08-25T20:26:09.832Z,71.12
2018-08-25T20:28:36.751Z,70.18
2018-08-25T20:31:03.703Z,70.26
2018-08-25T20:33:30.667Z,71.02
2018-08-25T20:35:58.272Z,71.23
2018-08-25T20:38:28.775Z,71.58
2018-08-25T20:40:55.828Z,71.38
2018-08-25T20:43:23.595Z,71.51
2018-08-25T20:45:50.775Z,72.87
2018-08-25T20:48:17.643Z,74.48
2018-08-25T20:50:44.611Z,74.68
2018-08-25T20:53:11.538Z,73.95
2018-08-25T20:55:38.503Z,73.30
2018-08-25T20:58:07.520Z,74.05
2018-08-25T21:00:34.468Z,75.13
2018-08-25T21:03:01.436Z,75.62
2018-08-25T21:05:28.360Z,76.21
2018-08-25T21:07:55.359Z,78.35
2018-08-25T21:10:22.311Z,77.75
2018-08-25T21:12:50.294Z,76.88
2018-08-25T21:15:17.223Z,75.39
2018-08-25T21:17:45.245Z,75.85
2018-08-25T21:20:12.179Z,74.69
2018-08-25T21:22:39.136Z,74.80
2018-08-25T21:25:06.222Z,74.75
2018-08-25T21:27:33.120Z,73.99
2018-08-25T21:30:00.124Z,73.55
2018-08-25T21:32:27.083Z,73.20
2018-08-25T21:34:54.031Z,73.80
2018-08-25T21:37:21.007Z,74.06
2018-08-25T21:39:48.007Z,74.95
2018-08-25T21:42:15.019Z,74.78
2018-08-25T21:44:45.541Z,75.25
2018-08-25T21:47:12.526Z,74.23
2018-08-25T21:49:39.478Z,74.18
2018-08-25T21:52:07.143Z,73.73
2018-08-25T21:54:34.710Z,73.41
2018-08-25T21:57:02.289Z,73.62
2018-08-25T21:59:29.259Z,73.69
2018-08-25T22:01:57.807Z,74.36
2018-08-25T22:04:25.407Z,74.82
2018-08-25T22:06:52.431Z,74.69
2018-08-25T22:09:20.235Z,75.08
2018-08-25T22:11:47.167Z,75.54
2018-08-25T22:14:14.139Z,74.83
2018-08-25T22:16:41.132Z,75.51
2018-08-25T22:19:08.695Z,74.69
2018-08-25T22:21:35.641Z,74.61
2018-08-25T22:24:03.199Z,76.21
2018-08-25T22:26:30.695Z,75.96
2018-08-25T22:28:58.247Z,76.13
2018-08-25T22:31:26.342Z,76.92
2018-08-25T22:33:53.296Z,78.21
2018-08-25T22:36:20.289Z,77.50
2018-08-25T22:38:47.212Z,78.38
2018-08-25T22:41:14.173Z,78.70
2018-08-25T22:43:41.132Z,80.38
2018-08-25T22:46:08.575Z,81.49
2018-08-25T22:48:35.565Z,82.14
2018-08-25T22:51:02.536Z,81.54
2018-08-25T22:53:29.484Z,82.48
2018-08-25T22:55:56.444Z,81.04
2018-08-25T22:58:23.305Z,80.83
2018-08-25T23:00:50.257Z,80.49
2018-08-25T23:03:17.203Z,79.93
2018-08-25T23:05:45.183Z,79.15
2018-08-25T23:08:13.164Z,80.01
2018-08-25T23:10:40.245Z,80.64
2018-08-25T23:13:07.151Z,80.81
2018-08-25T23:15:34.131Z,80.66
2018-08-25T23:18:01.123Z,80.21
2018-08-25T23:20:30.843Z,80.88
2018-08-25T23:22:58.803Z,80.08
2018-08-25T23:25:25.791Z,80.16
2018-08-25T23:27:57.284Z,80.60
2018-08-25T23:30:28.935Z,81.44
2018-08-25T23:32:56.742Z,81.31
2018-08-25T23:35:24.249Z,81.05
2018-08-25T23:37:51.201Z,81.35
2018-08-25T23:40:18.147Z,80.89
2018-08-25T23:42:45.112Z,81.28
2018-08-25T23:45:13.084Z,82.02
2018-08-25T23:47:43.031Z,84.80
2018-08-25T23:50:10.000Z,85.47
2018-08-25T23:52:37.003Z,85.34
2018-08-25T23:55:06.635Z,85.36
2018-08-25T23:57:33.631Z,85.92
